Terminal Aerodrome Forecast
Issued by NWS

Home | Current Version | Previous Version | Text Only | Print | Product List | Glossary On
Versions: 1 2 3 4 5 6 7 8 9 10 11 12 13 14 15 16 17 18 19 20 21 22 23 24 25 26 27 28 29 30
000
FTUS43 KGRR 140248 AAB
TAFLAN
TAF AMD
KLAN 140248Z 1403/1424 02014KT 1 1/2SM -SN OVC025
      TEMPO 1403/1404 OVC015
     FM140445 02013KT 4SM -SN OVC035
     FM140600 34008KT P6SM OVC050=

USA.gov is the U.S. government's official web portal to all federal, state and local government web resources and services.